Time;durP1;ratioP1;P1;durP2;ratioP2;P2;SDS_P1;SDS_P2;PMS_P1;PMS_P2;Temp;Humidity;BMP_temperature;BMP_pressure;BME280_temperature;BME280_humidity;BME280_pressure;Samples;Min_cycle;Max_cycle;Signal;HPM_P1;HPM_P2
2023/01/01 00:00:18;;;;;;;34.85;30.77;;;14.30;99.90;;;;;;5098244;28;20459;-69
2023/01/01 00:02:43;;;;;;;35.63;31.73;;;14.30;99.90;;;;;;5098247;28;20337;-69
2023/01/01 00:05:09;;;;;;;32.28;28.02;;;14.30;99.90;;;;;;5098180;28;20076;-69
2023/01/01 00:07:35;;;;;;;37.47;33.63;;;14.30;99.90;;;;;;5098485;28;20105;-69
2023/01/01 00:12:48;;;;;;;45.65;41.13;;;14.40;99.90;;;;;;5098028;28;20461;-69
2023/01/01 00:15:14;;;;;;;40.42;36.88;;;14.20;99.90;;;;;;5098305;28;20036;-69
2023/01/01 00:17:40;;;;;;;49.40;44.85;;;14.30;99.90;;;;;;5097862;28;20036;-69
2023/01/01 00:20:06;;;;;;;52.20;47.35;;;14.10;99.90;;;;;;5098226;28;20386;-69
2023/01/01 00:22:32;;;;;;;59.03;53.65;;;14.10;99.90;;;;;;5097166;28;20040;-69
2023/01/01 00:24:58;;;;;;;58.95;53.67;;;14.10;99.90;;;;;;5098107;28;20055;-69
2023/01/01 00:27:23;;;;;;;56.58;51.65;;;14.10;99.90;;;;;;5098056;28;20036;-69
2023/01/01 00:29:49;;;;;;;60.67;55.75;;;14.00;99.90;;;;;;5097735;28;20051;-69
2023/01/01 00:32:15;;;;;;;62.85;57.45;;;14.10;99.90;;;;;;5097626;28;20051;-69
2023/01/01 00:34:40;;;;;;;59.25;54.08;;;14.10;99.90;;;;;;5098005;28;20035;-69
2023/01/01 00:37:06;;;;;;;58.72;54.28;;;14.00;99.90;;;;;;5097659;28;20097;-69
2023/01/01 00:39:31;;;;;;;62.97;57.38;;;14.00;99.90;;;;;;5097848;28;20044;-69
2023/01/01 00:41:57;;;;;;;60.67;56.05;;;14.00;99.90;;;;;;5097884;28;20091;-69
2023/01/01 00:44:23;;;;;;;66.78;61.13;;;13.90;99.90;;;;;;5097816;28;20115;-69
2023/01/01 00:46:48;;;;;;;68.97;63.05;;;14.00;99.90;;;;;;5097335;28;20036;-69
2023/01/01 00:49:14;;;;;;;64.40;58.97;;;13.90;99.90;;;;;;5096401;28;20040;-69
2023/01/01 00:51:40;;;;;;;63.05;58.10;;;13.90;99.90;;;;;;5097364;28;20059;-69
2023/01/01 00:54:05;;;;;;;63.08;57.95;;;13.90;99.90;;;;;;5097358;28;20119;-69
2023/01/01 00:56:31;;;;;;;64.93;59.38;;;14.00;99.90;;;;;;5097555;28;20114;-69
2023/01/01 00:58:57;;;;;;;58.58;53.72;;;14.00;99.90;;;;;;5097595;28;20069;-69
2023/01/01 01:01:23;;;;;;;51.95;46.95;;;13.90;99.90;;;;;;5096247;28;20039;-69
2023/01/01 01:03:48;;;;;;;54.63;50.30;;;13.90;99.90;;;;;;5097466;28;20051;-69
2023/01/01 01:06:16;;;;;;;55.70;50.58;;;13.90;99.90;;;;;;5097489;28;20032;-69
2023/01/01 01:08:45;;;;;;;55.75;51.28;;;13.90;99.90;;;;;;5097374;28;20048;-69
2023/01/01 01:11:24;;;;;;;60.13;54.53;;;13.90;99.90;;;;;;5097189;28;20123;-69
2023/01/01 01:13:52;;;;;;;65.55;59.97;;;13.90;99.90;;;;;;5097098;28;20054;-69
2023/01/01 01:16:27;;;;;;;62.90;56.88;;;13.90;99.90;;;;;;5096845;28;20040;-69
2023/01/01 01:18:56;;;;;;;61.75;56.45;;;13.90;99.90;;;;;;5097309;28;20058;-69
2023/01/01 01:21:22;;;;;;;59.40;54.17;;;13.90;99.90;;;;;;5096870;28;20340;-69
2023/01/01 01:23:50;;;;;;;54.88;50.08;;;13.80;99.90;;;;;;5096831;28;20085;-69
2023/01/01 01:26:18;;;;;;;67.70;61.80;;;13.80;99.90;;;;;;5096783;28;20044;-69
2023/01/01 01:28:44;;;;;;;61.00;55.25;;;13.90;99.90;;;;;;5097106;28;20089;-69
2023/01/01 01:31:11;;;;;;;68.47;62.17;;;13.80;99.90;;;;;;5096943;28;20043;-69
2023/01/01 01:33:37;;;;;;;74.47;67.97;;;13.80;99.90;;;;;;5096680;28;20445;-69
2023/01/01 01:36:04;;;;;;;68.45;61.53;;;13.80;99.90;;;;;;5097159;28;20058;-69
2023/01/01 01:38:30;;;;;;;65.57;59.38;;;13.80;99.90;;;;;;5096447;28;20048;-69
2023/01/01 01:40:55;;;;;;;60.50;54.67;;;13.70;99.90;;;;;;5096918;28;20044;-69
2023/01/01 01:43:23;;;;;;;81.47;73.90;;;13.70;99.90;;;;;;5096913;28;20036;-69
2023/01/01 01:45:57;;;;;;;70.40;64.15;;;13.80;99.90;;;;;;5096121;28;20444;-69
2023/01/01 01:48:23;;;;;;;88.03;80.20;;;13.80;99.90;;;;;;5078768;28;20048;-69
2023/01/01 01:50:51;;;;;;;102.53;93.93;;;13.80;99.90;;;;;;5096672;28;20039;-69
2023/01/01 01:53:25;;;;;;;109.32;99.90;;;13.70;99.90;;;;;;5096694;28;20040;-69
2023/01/01 01:56:01;;;;;;;124.43;113.63;;;13.60;99.90;;;;;;5095578;28;20112;-69
2023/01/01 01:58:29;;;;;;;137.00;125.80;;;13.50;99.90;;;;;;5095619;28;20425;-69
2023/01/01 02:00:55;;;;;;;148.00;135.77;;;13.50;99.90;;;;;;5096286;28;20453;-69
2023/01/01 02:04:01;;;;;;;151.13;138.18;;;13.50;99.90;;;;;;5095582;28;20032;-69
2023/01/01 02:06:28;;;;;;;146.15;134.00;;;13.30;99.90;;;;;;5054155;28;20037;-69
2023/01/01 02:08:56;;;;;;;153.27;139.77;;;13.20;99.90;;;;;;5054150;28;20144;-69
2023/01/01 02:11:22;;;;;;;161.55;147.98;;;13.30;99.90;;;;;;5075132;28;20441;-69
2023/01/01 02:13:48;;;;;;;157.18;144.10;;;13.30;99.90;;;;;;5099553;28;20070;-69
2023/01/01 02:16:19;;;;;;;160.38;146.73;;;13.30;99.90;;;;;;5100122;28;20047;-69
2023/01/01 02:19:06;;;;;;;154.15;140.88;;;13.30;99.90;;;;;;5100518;28;20036;-69
2023/01/01 02:21:49;;;;;;;153.20;140.10;;;13.20;99.90;;;;;;5100613;28;20047;-69
2023/01/01 02:24:25;;;;;;;157.70;144.23;;;13.20;99.90;;;;;;5100162;28;20077;-69
2023/01/01 02:26:57;;;;;;;146.82;134.93;;;13.20;99.90;;;;;;5100199;28;20440;-69
2023/01/01 02:29:31;;;;;;;139.27;128.25;;;13.20;99.90;;;;;;5100323;28;20336;-69
2023/01/01 02:32:03;;;;;;;145.13;133.50;;;13.10;99.90;;;;;;5100366;28;20052;-69
2023/01/01 02:34:36;;;;;;;153.30;140.55;;;13.30;99.90;;;;;;5098872;28;20074;-69
2023/01/01 02:37:05;;;;;;;137.45;126.60;;;13.30;99.90;;;;;;5099697;28;20341;-69
2023/01/01 02:39:34;;;;;;;133.75;123.22;;;13.30;99.90;;;;;;5099905;28;20115;-70
2023/01/01 02:42:04;;;;;;;131.85;121.50;;;13.40;99.90;;;;;;5099884;28;20093;-69
2023/01/01 02:44:34;;;;;;;120.45;110.63;;;13.50;99.90;;;;;;5099600;28;20040;-69
2023/01/01 02:47:08;;;;;;;125.32;115.22;;;13.40;99.90;;;;;;5099027;28;20392;-69
2023/01/01 02:49:40;;;;;;;121.60;111.40;;;13.40;99.90;;;;;;5098658;28;20040;-69
2023/01/01 02:52:31;;;;;;;111.38;103.15;;;13.50;99.90;;;;;;5099720;28;20357;-69
2023/01/01 02:55:07;;;;;;;112.93;103.72;;;13.50;99.90;;;;;;5099861;28;20043;-69
2023/01/01 02:57:32;;;;;;;100.57;92.90;;;13.40;99.90;;;;;;5099982;28;20032;-69
2023/01/01 03:00:20;;;;;;;106.50;97.97;;;13.40;99.90;;;;;;5081565;28;20452;-69
2023/01/01 03:03:23;;;;;;;103.47;95.47;;;13.50;99.90;;;;;;5099746;28;20051;-69
2023/01/01 03:06:25;;;;;;;99.57;91.50;;;13.40;99.90;;;;;;5099726;28;20055;-69
2023/01/01 03:09:10;;;;;;;80.10;73.65;;;13.40;99.90;;;;;;5099394;28;20040;-69
2023/01/01 03:11:52;;;;;;;85.22;78.05;;;13.40;99.90;;;;;;5099560;28;20073;-69
2023/01/01 03:14:45;;;;;;;73.32;67.15;;;13.40;99.90;;;;;;5099513;28;20047;-69
2023/01/01 03:17:29;;;;;;;56.65;51.83;;;13.40;99.90;;;;;;5099063;28;20039;-69
2023/01/01 03:19:58;;;;;;;59.80;54.30;;;13.50;99.90;;;;;;5099642;28;20039;-69
2023/01/01 03:22:34;;;;;;;62.28;56.80;;;13.60;99.90;;;;;;5099405;28;20036;-69
2023/01/01 03:25:13;;;;;;;58.63;53.38;;;13.60;99.90;;;;;;5098364;28;20410;-69
2023/01/01 03:27:43;;;;;;;84.97;78.43;;;13.60;99.90;;;;;;5098242;28;20474;-69
2023/01/01 03:30:12;;;;;;;84.88;78.90;;;13.50;99.90;;;;;;5098182;28;20110;-69
2023/01/01 03:33:02;;;;;;;105.43;98.20;;;13.40;99.90;;;;;;5098786;28;20535;-69
2023/01/01 03:35:58;;;;;;;134.73;125.35;;;13.40;99.90;;;;;;5098704;28;20425;-68
2023/01/01 03:38:37;;;;;;;149.80;139.50;;;13.20;99.90;;;;;;5098542;28;20048;-69
2023/01/01 03:41:11;;;;;;;165.88;154.35;;;13.00;99.90;;;;;;5098919;28;20036;-68
2023/01/01 03:43:52;;;;;;;171.90;159.60;;;12.90;99.90;;;;;;5097948;28;20146;-68
2023/01/01 03:46:25;;;;;;;184.40;172.30;;;12.60;99.90;;;;;;5097142;28;20032;-68
2023/01/01 03:48:59;;;;;;;203.75;189.38;;;12.60;99.90;;;;;;5098769;28;20416;-68
2023/01/01 03:51:39;;;;;;;218.50;203.32;;;12.40;99.90;;;;;;5098667;28;20149;-68
2023/01/01 03:54:20;;;;;;;225.00;208.25;;;12.40;99.90;;;;;;5098594;28;20039;-69
2023/01/01 03:56:55;;;;;;;226.95;210.30;;;12.40;99.90;;;;;;5098583;28;20044;-69
2023/01/01 03:59:28;;;;;;;227.40;210.35;;;12.40;99.90;;;;;;5098541;28;20043;-69
2023/01/01 04:01:57;;;;;;;222.07;206.93;;;12.40;99.90;;;;;;5098227;28;20490;-69
2023/01/01 04:04:25;;;;;;;225.18;209.88;;;12.30;99.90;;;;;;5098126;28;20348;-68
2023/01/01 04:06:51;;;;;;;222.40;207.20;;;12.20;99.90;;;;;;5098327;28;20320;-68
2023/01/01 04:09:28;;;;;;;222.57;207.27;;;12.20;99.90;;;;;;5097967;28;20497;-68
2023/01/01 04:12:05;;;;;;;220.13;204.68;;;12.20;99.90;;;;;;5098246;28;20101;-69
2023/01/01 04:14:40;;;;;;;212.35;198.10;;;12.30;99.90;;;;;;5097263;28;20119;-69
2023/01/01 04:17:08;;;;;;;210.88;196.93;;;12.20;99.90;;;;;;5096979;28;20040;-69
2023/01/01 04:19:34;;;;;;;208.13;194.63;;;12.30;99.90;;;;;;5096776;28;20043;-69
2023/01/01 04:22:01;;;;;;;211.25;197.20;;;12.20;99.90;;;;;;5098161;28;20093;-69
2023/01/01 04:24:27;;;;;;;204.50;191.30;;;12.20;99.90;;;;;;5098081;28;20075;-70
2023/01/01 04:26:55;;;;;;;207.73;193.98;;;12.30;99.90;;;;;;5098047;28;20115;-69
2023/01/01 04:29:21;;;;;;;203.13;189.95;;;12.30;99.90;;;;;;5097944;28;20078;-69
2023/01/01 04:31:47;;;;;;;199.93;187.15;;;12.30;99.90;;;;;;5097567;28;20449;-69
2023/01/01 04:34:13;;;;;;;204.02;189.85;;;12.40;99.90;;;;;;5097862;28;20040;-69
2023/01/01 04:36:39;;;;;;;192.63;180.07;;;12.40;99.90;;;;;;5097101;28;20028;-69
2023/01/01 04:39:05;;;;;;;190.25;178.10;;;12.30;99.90;;;;;;5097554;28;20044;-69
2023/01/01 04:41:31;;;;;;;197.57;183.85;;;12.30;99.90;;;;;;5097705;28;20054;-68
2023/01/01 04:43:57;;;;;;;196.60;183.15;;;12.30;99.90;;;;;;5097701;28;20054;-69
2023/01/01 04:46:23;;;;;;;194.95;181.75;;;12.30;99.90;;;;;;5096937;28;20071;-69
2023/01/01 04:48:49;;;;;;;195.40;182.52;;;12.30;99.90;;;;;;5096391;28;20055;-69
2023/01/01 04:51:17;;;;;;;192.98;180.23;;;12.30;99.90;;;;;;5097137;28;20048;-69
2023/01/01 04:53:43;;;;;;;188.00;175.70;;;12.30;99.90;;;;;;5097186;28;20476;-69
2023/01/01 04:56:15;;;;;;;190.63;178.05;;;12.30;99.90;;;;;;5097490;28;20083;-69
2023/01/01 04:58:41;;;;;;;185.57;173.55;;;12.30;99.90;;;;;;5097438;28;20234;-69
2023/01/01 05:01:12;;;;;;;188.57;176.30;;;12.20;99.90;;;;;;5097113;28;20422;-69
2023/01/01 05:03:38;;;;;;;189.65;177.15;;;12.30;99.90;;;;;;5097335;28;20051;-69
2023/01/01 05:06:07;;;;;;;184.25;172.32;;;12.20;99.90;;;;;;5096994;28;20063;-69
2023/01/01 05:08:34;;;;;;;186.25;174.63;;;12.20;99.90;;;;;;5096953;28;20508;-69
2023/01/01 05:11:06;;;;;;;189.10;177.02;;;12.20;99.90;;;;;;5097141;28;20115;-69
2023/01/01 05:13:41;;;;;;;167.43;156.90;;;12.30;99.90;;;;;;5096193;28;20291;-69
2023/01/01 05:16:09;;;;;;;177.48;166.73;;;12.20;99.90;;;;;;5096763;28;20044;-69
2023/01/01 05:18:35;;;;;;;172.45;161.00;;;12.30;99.90;;;;;;5097144;28;20035;-69
2023/01/01 05:21:06;;;;;;;172.07;161.77;;;12.30;99.90;;;;;;5097111;28;20115;-69
2023/01/01 05:23:32;;;;;;;168.05;157.70;;;12.30;99.90;;;;;;5095998;28;20101;-69
2023/01/01 05:25:58;;;;;;;155.80;146.30;;;12.40;99.90;;;;;;5096677;28;20039;-68
2023/01/01 05:28:24;;;;;;;165.25;155.45;;;12.40;99.90;;;;;;5079351;28;20043;-69
2023/01/01 05:30:51;;;;;;;157.93;148.00;;;12.50;99.90;;;;;;5096969;28;20495;-69
2023/01/01 05:33:17;;;;;;;153.63;144.40;;;12.50;99.90;;;;;;5096605;28;20078;-69
2023/01/01 05:35:42;;;;;;;165.77;156.27;;;12.50;99.90;;;;;;5096871;28;20071;-69
2023/01/01 05:38:08;;;;;;;154.13;144.80;;;12.60;99.90;;;;;;5095347;28;20056;-69
2023/01/01 05:40:36;;;;;;;153.82;144.45;;;12.50;99.90;;;;;;5096839;28;20047;-69
2023/01/01 05:43:02;;;;;;;146.32;137.43;;;12.60;99.90;;;;;;5096796;28;20064;-69
2023/01/01 05:45:28;;;;;;;133.70;125.88;;;12.50;99.90;;;;;;5096766;28;20446;-69
2023/01/01 05:47:55;;;;;;;109.65;103.10;;;12.50;99.90;;;;;;5095733;28;20036;-69
2023/01/01 05:50:21;;;;;;;96.90;91.75;;;12.50;99.90;;;;;;5096845;28;20072;-69
2023/01/01 05:52:46;;;;;;;107.05;100.68;;;12.50;99.90;;;;;;5096666;28;20137;-69
2023/01/01 05:55:12;;;;;;;113.20;107.38;;;12.50;99.90;;;;;;5095373;28;20040;-68
2023/01/01 05:57:37;;;;;;;89.18;83.97;;;12.60;99.90;;;;;;5095763;28;20059;-69
2023/01/01 06:00:04;;;;;;;100.53;95.13;;;12.60;99.90;;;;;;5096679;28;20410;-69
2023/01/01 06:02:30;;;;;;;94.60;89.13;;;12.60;99.90;;;;;;5096757;28;20353;-69
2023/01/01 06:04:56;;;;;;;89.88;84.88;;;12.50;99.90;;;;;;5096747;28;20052;-69
2023/01/01 06:07:21;;;;;;;97.63;92.50;;;12.50;99.90;;;;;;5095404;28;20105;-69
2023/01/01 06:09:47;;;;;;;91.15;85.93;;;12.60;99.90;;;;;;5096682;28;20044;-69
2023/01/01 06:12:12;;;;;;;90.65;85.50;;;12.50;99.90;;;;;;5096586;28;20076;-69
2023/01/01 06:14:38;;;;;;;82.15;77.68;;;12.50;99.90;;;;;;5096647;28;20302;-69
2023/01/01 06:17:04;;;;;;;68.40;64.68;;;12.50;99.90;;;;;;5078340;28;20047;-69
2023/01/01 06:19:29;;;;;;;66.63;62.97;;;12.50;99.90;;;;;;5096321;28;20036;-69
2023/01/01 06:21:55;;;;;;;51.67;48.17;;;12.50;99.90;;;;;;5096608;28;20066;-69
2023/01/01 06:24:21;;;;;;;56.88;53.45;;;12.60;99.90;;;;;;5096578;28;20542;-69
2023/01/01 06:26:46;;;;;;;48.97;45.88;;;12.60;99.90;;;;;;5095542;28;20440;-69
2023/01/01 06:29:12;;;;;;;37.88;35.45;;;12.60;99.90;;;;;;5096522;28;20119;-69
2023/01/01 06:31:37;;;;;;;29.98;28.20;;;12.50;99.90;;;;;;5096408;28;20080;-69
2023/01/01 06:34:03;;;;;;;42.53;39.88;;;12.50;99.90;;;;;;5096458;28;20044;-69
2023/01/01 06:36:29;;;;;;;44.78;41.80;;;12.60;99.90;;;;;;5096452;28;20033;-69
2023/01/01 06:38:55;;;;;;;44.75;41.97;;;12.50;99.90;;;;;;5095956;28;20502;-69
2023/01/01 06:41:23;;;;;;;42.92;40.10;;;12.50;99.90;;;;;;5096128;28;20052;-69
2023/01/01 06:43:49;;;;;;;39.90;37.53;;;12.50;99.90;;;;;;5096396;28;20369;-69
2023/01/01 06:46:19;;;;;;;36.20;33.97;;;12.50;99.90;;;;;;5095664;28;20036;-69
2023/01/01 06:48:49;;;;;;;34.55;32.10;;;12.50;99.90;;;;;;5096241;28;20043;-69
2023/01/01 06:51:21;;;;;;;31.70;28.65;;;12.40;99.90;;;;;;5096264;28;20131;-69
2023/01/01 06:53:48;;;;;;;30.08;27.75;;;12.40;99.90;;;;;;5096330;28;20040;-69
2023/01/01 06:56:14;;;;;;;29.02;26.77;;;12.40;99.90;;;;;;5096288;28;20044;-69
2023/01/01 06:58:40;;;;;;;31.33;29.38;;;12.40;99.90;;;;;;5096278;28;20035;-69
2023/01/01 07:01:14;;;;;;;29.00;26.13;;;12.40;99.90;;;;;;5099667;28;20044;-69
2023/01/01 07:03:41;;;;;;;30.20;27.95;;;12.40;99.90;;;;;;5099478;28;20321;-69
2023/01/01 07:06:08;;;;;;;36.83;34.13;;;12.40;99.90;;;;;;5099770;28;20028;-69
2023/01/01 07:08:34;;;;;;;36.25;33.30;;;12.30;99.90;;;;;;5099709;28;20032;-69
2023/01/01 07:11:01;;;;;;;39.80;37.25;;;12.30;99.90;;;;;;5099599;28;20059;-69
2023/01/01 07:13:28;;;;;;;31.15;28.08;;;12.40;99.90;;;;;;5099343;28;20498;-69
2023/01/01 07:15:54;;;;;;;32.10;29.50;;;12.30;99.90;;;;;;5099127;28;20055;-69
2023/01/01 07:18:22;;;;;;;27.83;25.55;;;12.20;99.90;;;;;;5099958;28;20040;-69
2023/01/01 07:20:53;;;;;;;28.83;26.00;;;12.30;99.90;;;;;;5099513;28;20028;-69
2023/01/01 07:23:19;;;;;;;25.75;23.48;;;12.30;99.90;;;;;;5099388;28;20036;-69
2023/01/01 07:25:45;;;;;;;30.48;27.80;;;12.30;99.90;;;;;;5099327;28;20413;-69
2023/01/01 07:28:11;;;;;;;29.50;26.60;;;12.30;99.90;;;;;;5099038;28;20062;-69
2023/01/01 07:30:37;;;;;;;25.27;22.73;;;12.30;99.90;;;;;;5099316;28;20333;-68
2023/01/01 07:33:03;;;;;;;27.65;25.15;;;12.20;99.90;;;;;;5099203;28;20039;-69
2023/01/01 07:35:28;;;;;;;33.92;31.35;;;12.20;99.90;;;;;;5099215;28;20040;-69
2023/01/01 07:37:54;;;;;;;32.17;29.35;;;12.20;99.90;;;;;;5097841;28;20408;-69
2023/01/01 07:40:20;;;;;;;34.85;31.23;;;12.20;99.90;;;;;;5098861;28;20456;-69
2023/01/01 07:42:45;;;;;;;36.20;33.17;;;12.20;99.90;;;;;;5099053;28;20036;-69
2023/01/01 07:45:12;;;;;;;29.90;25.98;;;12.20;99.90;;;;;;5098997;28;20119;-69
2023/01/01 07:47:38;;;;;;;34.13;30.77;;;12.20;99.90;;;;;;5098539;28;20109;-69
2023/01/01 07:50:04;;;;;;;33.58;30.30;;;12.20;99.90;;;;;;5098940;28;20410;-69
2023/01/01 07:52:29;;;;;;;34.95;31.42;;;12.20;99.90;;;;;;5098500;28;20044;-69
2023/01/01 07:54:55;;;;;;;31.90;28.92;;;12.20;99.90;;;;;;5098795;28;20464;-68
2023/01/01 07:57:21;;;;;;;35.20;32.25;;;12.20;99.90;;;;;;5098431;28;20036;-69
2023/01/01 07:59:46;;;;;;;38.42;35.53;;;12.20;99.90;;;;;;5097484;28;20044;-69
2023/01/01 08:02:12;;;;;;;30.23;27.58;;;12.20;99.90;;;;;;5098357;28;20196;-69
2023/01/01 08:04:38;;;;;;;37.53;34.28;;;12.10;99.90;;;;;;5098657;28;20055;-69
2023/01/01 08:07:04;;;;;;;35.95;32.38;;;12.10;99.90;;;;;;5098591;28;20072;-69
2023/01/01 08:09:30;;;;;;;34.38;30.58;;;12.20;99.90;;;;;;5098410;28;20038;-69
2023/01/01 08:11:57;;;;;;;35.55;31.88;;;12.20;99.90;;;;;;5098060;28;20046;-69
2023/01/01 08:14:26;;;;;;;36.95;33.92;;;12.20;99.90;;;;;;5098127;28;20425;-69
2023/01/01 08:16:52;;;;;;;33.05;29.75;;;12.10;99.90;;;;;;5097947;28;20040;-69
2023/01/01 08:19:17;;;;;;;38.80;35.22;;;12.10;99.90;;;;;;5098105;28;20337;-69
2023/01/01 08:21:43;;;;;;;31.20;28.05;;;12.20;99.90;;;;;;5097321;28;20078;-69
2023/01/01 08:24:09;;;;;;;43.30;32.38;;;12.10;99.90;;;;;;5098248;28;20047;-69
2023/01/01 08:26:38;;;;;;;35.50;32.20;;;12.10;99.90;;;;;;5096905;28;20043;-69
2023/01/01 08:29:05;;;;;;;41.60;38.42;;;12.10;99.90;;;;;;5097841;28;20119;-69
2023/01/01 08:31:32;;;;;;;40.50;36.70;;;12.10;99.90;;;;;;5098026;28;20165;-69
2023/01/01 08:33:58;;;;;;;39.25;35.58;;;12.10;99.90;;;;;;5080081;28;20040;-69
2023/01/01 08:36:24;;;;;;;41.45;37.25;;;12.10;99.90;;;;;;5097993;28;20047;-69
2023/01/01 08:38:49;;;;;;;39.95;36.38;;;12.20;99.90;;;;;;5097541;28;20123;-67
2023/01/01 08:41:15;;;;;;;42.50;34.92;;;12.20;99.90;;;;;;5096650;28;20178;-67
2023/01/01 08:43:41;;;;;;;38.30;34.00;;;12.10;99.90;;;;;;5096518;28;20035;-67
2023/01/01 08:46:06;;;;;;;43.75;40.38;;;12.00;99.90;;;;;;5097403;28;20368;-68
2023/01/01 08:48:32;;;;;;;41.67;37.45;;;12.00;99.90;;;;;;5097113;28;20089;-70
2023/01/01 08:51:00;;;;;;;41.92;33.95;;;12.00;99.90;;;;;;5097572;28;20319;-67
2023/01/01 08:53:26;;;;;;;41.83;37.60;;;12.00;99.90;;;;;;5097488;28;20089;-67
2023/01/01 08:55:59;;;;;;;45.90;41.35;;;12.00;99.90;;;;;;5096000;28;20063;-67
2023/01/01 08:58:26;;;;;;;46.90;42.10;;;12.00;99.90;;;;;;5097607;28;20040;-67
2023/01/01 09:00:53;;;;;;;45.88;41.50;;;12.00;99.90;;;;;;5096591;28;20365;-68
2023/01/01 09:03:19;;;;;;;40.33;36.85;;;12.10;99.90;;;;;;5097225;28;20452;-66
2023/01/01 09:05:44;;;;;;;39.72;35.95;;;12.10;99.90;;;;;;5093995;28;20087;-67
2023/01/01 09:08:13;;;;;;;42.00;37.70;;;12.10;99.90;;;;;;5078165;28;20440;-67
2023/01/01 09:10:41;;;;;;;41.85;34.85;;;12.10;99.90;;;;;;5076665;28;20051;-69
2023/01/01 09:13:07;;;;;;;40.00;35.97;;;12.10;99.90;;;;;;5090407;28;20044;-67
2023/01/01 09:15:33;;;;;;;39.65;35.80;;;12.10;99.90;;;;;;5095856;28;20062;-67
2023/01/01 09:17:58;;;;;;;35.95;32.90;;;12.00;99.90;;;;;;5090931;28;20040;-67
2023/01/01 09:20:24;;;;;;;39.83;35.95;;;12.00;99.90;;;;;;5077267;28;20079;-67
2023/01/01 09:22:50;;;;;;;44.85;41.25;;;12.10;99.90;;;;;;5081114;28;20048;-67
2023/01/01 09:25:16;;;;;;;47.13;42.65;;;12.10;99.90;;;;;;5096995;28;20432;-67
2023/01/01 09:27:41;;;;;;;41.67;38.17;;;12.20;99.90;;;;;;5096502;28;20046;-67
2023/01/01 09:30:08;;;;;;;51.40;46.67;;;12.10;99.90;;;;;;5096951;28;20072;-67
2023/01/01 09:32:33;;;;;;;42.78;38.58;;;12.20;99.90;;;;;;5096584;28;20070;-67
2023/01/01 09:35:00;;;;;;;49.38;44.17;;;12.10;99.90;;;;;;5090521;28;20033;-68
2023/01/01 09:37:26;;;;;;;45.17;40.97;;;12.20;99.90;;;;;;5076227;28;20385;-67
2023/01/01 09:39:51;;;;;;;43.78;39.80;;;12.10;99.90;;;;;;5076846;28;20086;-67
2023/01/01 09:42:46;;;;;;;41.95;38.38;;;12.20;99.90;;;;;;5075635;28;20048;-67
2023/01/01 09:45:26;;;;;;;41.95;37.80;;;12.20;99.90;;;;;;5075517;28;20044;-67
2023/01/01 09:48:12;;;;;;;44.53;40.80;;;12.20;99.90;;;;;;5075947;28;20055;-67
2023/01/01 09:50:40;;;;;;;47.20;41.95;;;12.20;99.90;;;;;;5091506;28;20055;-67
2023/01/01 09:53:15;;;;;;;44.30;40.10;;;12.20;99.90;;;;;;5078495;28;20102;-67
2023/01/01 09:55:49;;;;;;;48.33;43.85;;;12.20;99.90;;;;;;5096413;28;20413;-66
2023/01/01 09:58:16;;;;;;;43.63;39.53;;;12.30;99.90;;;;;;5082516;28;20052;-67
2023/01/01 10:00:45;;;;;;;51.80;46.78;;;12.30;99.90;;;;;;5076008;28;20058;-68
2023/01/01 10:03:18;;;;;;;49.35;44.03;;;12.30;99.90;;;;;;5074263;28;20041;-72
2023/01/01 10:06:12;;;;;;;50.90;45.95;;;12.30;99.90;;;;;;5088477;28;20036;-67
2023/01/01 10:09:05;;;;;;;49.90;46.15;;;12.40;99.90;;;;;;5075232;28;20127;-67
2023/01/01 10:11:58;;;;;;;50.92;46.47;;;12.40;99.90;;;;;;5112368;28;20036;-67
2023/01/01 10:14:40;;;;;;;57.92;52.85;;;12.40;99.90;;;;;;5094738;28;20056;-67
2023/01/01 10:17:33;;;;;;;51.13;46.53;;;12.50;99.90;;;;;;5094893;28;20032;-67
2023/01/01 10:20:17;;;;;;;42.08;38.22;;;12.50;99.90;;;;;;5071865;28;20094;-67
2023/01/01 10:22:48;;;;;;;42.08;37.75;;;12.50;99.90;;;;;;5076506;28;20123;-67
2023/01/01 10:25:21;;;;;;;48.45;43.65;;;12.60;99.90;;;;;;5076383;28;20079;-67
2023/01/01 10:28:00;;;;;;;33.80;29.60;;;12.60;99.90;;;;;;5075292;28;20146;-67
2023/01/01 10:30:28;;;;;;;42.40;33.67;;;12.60;99.90;;;;;;5076327;28;20079;-67
2023/01/01 10:32:55;;;;;;;38.78;31.70;;;12.70;99.90;;;;;;5076030;28;20449;-67
2023/01/01 10:35:33;;;;;;;40.33;36.85;;;12.80;99.90;;;;;;5080082;28;20043;-67
2023/01/01 10:38:02;;;;;;;41.58;36.92;;;12.90;99.90;;;;;;5079648;28;20067;-68
2023/01/01 10:40:30;;;;;;;47.63;43.20;;;12.70;99.90;;;;;;5078649;28;20032;-68
2023/01/01 10:42:58;;;;;;;50.55;46.28;;;12.70;99.90;;;;;;5078576;28;20037;-72
2023/01/01 10:45:38;;;;;;;44.90;40.90;;;12.80;99.90;;;;;;5090317;28;20425;-69
2023/01/01 10:48:18;;;;;;;47.58;43.50;;;12.70;99.90;;;;;;5093915;28;20040;-68
2023/01/01 10:50:55;;;;;;;40.70;36.97;;;12.60;99.90;;;;;;5094864;28;20040;-68
2023/01/01 10:53:22;;;;;;;;;;;12.70;99.90;;;;;;5095039;28;20395;-68
2023/01/01 10:55:50;;;;;;;40.25;36.60;;;12.60;99.90;;;;;;5099710;28;19963;-68
2023/01/01 10:58:34;;;;;;;40.17;36.80;;;12.70;99.90;;;;;;5098549;28;20297;-68
2023/01/01 11:01:01;;;;;;;43.67;40.28;;;12.80;99.90;;;;;;5098865;28;20103;-68
2023/01/01 11:03:27;;;;;;;43.92;39.85;;;12.80;99.90;;;;;;5079429;28;20055;-68
2023/01/01 11:06:25;;;;;;;44.42;41.03;;;12.80;99.90;;;;;;5078911;28;20421;-68
2023/01/01 11:08:57;;;;;;;37.25;33.67;;;12.90;99.90;;;;;;5086042;28;20358;-68
2023/01/01 11:11:30;;;;;;;41.03;37.33;;;12.80;99.90;;;;;;5099232;28;20036;-69
2023/01/01 11:14:03;;;;;;;40.78;37.35;;;12.70;99.90;;;;;;5099272;28;20107;-68
2023/01/01 11:16:29;;;;;;;39.30;35.50;;;12.80;99.90;;;;;;5098907;28;20119;-69
2023/01/01 11:19:04;;;;;;;30.73;27.77;;;12.80;99.90;;;;;;5090299;28;20032;-71
2023/01/01 11:21:30;;;;;;;37.92;34.00;;;12.70;99.90;;;;;;5090954;28;20101;-70
2023/01/01 11:24:29;;;;;;;34.30;31.15;;;12.70;99.90;;;;;;5086870;28;20044;-71
2023/01/01 11:27:19;;;;;;;33.45;30.23;;;12.70;99.90;;;;;;5067290;28;20048;-70
2023/01/01 11:29:45;;;;;;;30.02;26.92;;;12.60;99.90;;;;;;5111989;28;20041;-70
2023/01/01 11:32:25;;;;;;;31.20;28.63;;;12.70;99.90;;;;;;5085006;28;20045;-70
2023/01/01 11:35:00;;;;;;;31.55;28.45;;;12.80;99.90;;;;;;5091605;28;20032;-70
2023/01/01 11:37:32;;;;;;;28.05;25.55;;;12.80;99.90;;;;;;5094687;28;20070;-69
2023/01/01 11:40:03;;;;;;;32.15;29.13;;;12.90;99.90;;;;;;5079883;28;20041;-69
2023/01/01 11:42:36;;;;;;;29.77;26.88;;;12.70;99.90;;;;;;5095795;28;20036;-69
2023/01/01 11:45:08;;;;;;;26.60;23.67;;;12.70;99.90;;;;;;5081116;28;20040;-69
2023/01/01 11:47:37;;;;;;;27.10;24.38;;;12.60;99.90;;;;;;5097177;28;20123;-69
2023/01/01 11:50:13;;;;;;;27.95;24.88;;;12.60;99.90;;;;;;5098676;28;20066;-69
2023/01/01 11:52:45;;;;;;;21.95;19.65;;;12.60;99.90;;;;;;5098692;28;20076;-69
2023/01/01 11:55:25;;;;;;;28.13;25.42;;;12.60;99.90;;;;;;5096798;28;20087;-70
2023/01/01 11:58:03;;;;;;;28.10;25.23;;;12.60;99.90;;;;;;5088502;28;20375;-69
2023/01/01 12:00:33;;;;;;;28.58;22.25;;;12.70;99.90;;;;;;5086619;28;20051;-69
2023/01/01 12:03:05;;;;;;;30.33;25.58;;;12.70;99.90;;;;;;5095267;28;20044;-73
2023/01/01 12:06:00;;;;;;;21.83;19.38;;;12.70;99.90;;;;;;5092209;28;20368;-70
2023/01/01 12:08:38;;;;;;;27.50;24.50;;;12.70;99.90;;;;;;5095636;28;20093;-70
2023/01/01 12:11:33;;;;;;;25.45;23.00;;;12.80;99.90;;;;;;5075288;28;20123;-72
2023/01/01 12:14:08;;;;;;;28.15;22.73;;;12.90;99.90;;;;;;5076865;28;20111;-69
2023/01/01 12:16:44;;;;;;;23.75;21.25;;;13.00;99.90;;;;;;5077475;28;20448;-70
2023/01/01 12:19:21;;;;;;;;;;;13.10;99.90;;;;;;5078421;28;20039;-69
2023/01/01 12:21:50;;;;;;;21.30;16.52;;;13.10;99.90;;;;;;5078167;28;20034;-69
2023/01/01 12:24:17;;;;;;;23.17;20.73;;;13.20;99.90;;;;;;5077989;28;20032;-69
2023/01/01 12:27:11;;;;;;;26.00;20.58;;;13.20;99.90;;;;;;5077960;28;20044;-73
2023/01/01 12:30:03;;;;;;;25.30;17.65;;;13.00;99.90;;;;;;5077984;28;20364;-68
2023/01/01 12:32:39;;;;;;;29.15;23.35;;;12.90;99.90;;;;;;5077771;28;20052;-69
2023/01/01 12:35:23;;;;;;;26.65;18.40;;;12.90;99.90;;;;;;5088372;28;20041;-69
2023/01/01 12:37:55;;;;;;;25.75;22.92;;;12.80;99.90;;;;;;5097450;28;20468;-69
2023/01/01 12:40:29;;;;;;;23.98;19.10;;;12.90;99.90;;;;;;5097682;28;20421;-71
2023/01/01 12:43:08;;;;;;;30.13;21.05;;;13.00;99.90;;;;;;5096538;28;20048;-68